createdAt,value
2022-10-18T00:00:08.953Z,102669.63
2022-10-18T00:02:38.065Z,102654.09
2022-10-18T00:05:05.734Z,102665.16
2022-10-18T00:07:32.945Z,102671.69
2022-10-18T00:10:00.541Z,102666.34
2022-10-18T00:12:28.875Z,102656.44
2022-10-18T00:14:55.652Z,102666.44
2022-10-18T00:17:22.422Z,102647.94
2022-10-18T00:19:50.461Z,102659.91
2022-10-18T00:22:17.322Z,102660.47
2022-10-18T00:24:44.242Z,102649.03
2022-10-18T00:27:11.329Z,102648.41
2022-10-18T00:29:39.678Z,102656.13
2022-10-18T00:32:06.758Z,102657.81
2022-10-18T00:34:33.565Z,102652.94
2022-10-18T00:37:00.445Z,102671.94
2022-10-18T00:39:27.345Z,102661.69
2022-10-18T00:41:54.151Z,102680.03
2022-10-18T00:44:58.431Z,102679.59
2022-10-18T00:47:26.961Z,102684.78
2022-10-18T00:49:56.993Z,102676.88
2022-10-18T00:52:35.648Z,102678.00
2022-10-18T00:55:04.150Z,102665.75
2022-10-18T00:57:31.938Z,102679.00
2022-10-18T00:59:59.051Z,102677.78
2022-10-18T01:02:29.030Z,102684.06
2022-10-18T01:04:56.163Z,102679.56
2022-10-18T01:07:34.442Z,102677.72
2022-10-18T01:10:13.348Z,102669.59
2022-10-18T01:12:48.738Z,102674.47
2022-10-18T01:15:17.242Z,102674.03
2022-10-18T01:17:54.294Z,102677.25
2022-10-18T01:20:40.948Z,102667.50
2022-10-18T01:23:16.014Z,102677.06
2022-10-18T01:25:53.568Z,102689.97
2022-10-18T01:28:34.479Z,102682.31
2022-10-18T01:31:05.399Z,102677.75
2022-10-18T01:33:39.482Z,102685.66
2022-10-18T01:36:09.890Z,102673.19
2022-10-18T01:38:38.695Z,102679.75
2022-10-18T01:41:13.145Z,102639.34
2022-10-18T01:43:43.700Z,102684.25
2022-10-18T01:46:14.612Z,102687.28
2022-10-18T01:48:41.747Z,102694.50
2022-10-18T01:51:09.638Z,102698.94
2022-10-18T01:53:36.590Z,102698.09
2022-10-18T01:56:22.586Z,102682.44
2022-10-18T01:58:59.543Z,102685.69
2022-10-18T02:01:42.540Z,102687.63
2022-10-18T02:04:20.449Z,102690.81
2022-10-18T02:06:55.026Z,102698.28
2022-10-18T02:09:30.436Z,102691.63
2022-10-18T02:11:57.688Z,102689.22
2022-10-18T02:14:25.907Z,102690.00
2022-10-18T02:16:57.141Z,102689.38
2022-10-18T02:19:28.584Z,102678.25
2022-10-18T02:21:57.861Z,102683.72
2022-10-18T02:24:30.542Z,102685.38
2022-10-18T02:26:57.313Z,102686.53
2022-10-18T02:29:24.315Z,102685.38
2022-10-18T02:31:57.220Z,102695.72
2022-10-18T02:34:29.477Z,102696.31
2022-10-18T02:36:59.796Z,102677.41
2022-10-18T02:39:30.327Z,102692.72
2022-10-18T02:41:58.018Z,102685.75
2022-10-18T02:44:25.279Z,102689.56
2022-10-18T02:46:52.565Z,102699.47
2022-10-18T02:49:20.737Z,102701.22
2022-10-18T02:51:47.445Z,102696.41
2022-10-18T02:54:14.317Z,102684.31
2022-10-18T02:56:41.064Z,102678.75
2022-10-18T02:59:08.292Z,102694.00
2022-10-18T03:01:36.244Z,102698.94
2022-10-18T03:04:04.103Z,102702.78
2022-10-18T03:06:32.565Z,102689.34
2022-10-18T03:08:59.407Z,102708.38
2022-10-18T03:11:26.152Z,102692.00
2022-10-18T03:13:52.980Z,102721.03
2022-10-18T03:16:19.874Z,102697.72
2022-10-18T03:18:46.843Z,102701.28
2022-10-18T03:21:13.665Z,102692.69
2022-10-18T03:23:42.344Z,102710.06
2022-10-18T03:26:09.210Z,102707.53
2022-10-18T03:28:35.941Z,102709.66
2022-10-18T03:31:04.073Z,102718.38
2022-10-18T03:33:31.977Z,102709.69
2022-10-18T03:35:58.829Z,102698.44
2022-10-18T03:38:25.731Z,102721.53
2022-10-18T03:40:53.980Z,102725.72
2022-10-18T03:43:20.770Z,102709.19
2022-10-18T03:45:47.530Z,102712.88
2022-10-18T03:48:14.239Z,102721.44
2022-10-18T03:50:41.181Z,102698.53
2022-10-18T03:53:07.971Z,102706.38
2022-10-18T03:55:34.813Z,102717.63
2022-10-18T03:58:05.584Z,102719.28
2022-10-18T04:00:32.674Z,102723.94
2022-10-18T04:02:59.411Z,102719.81
2022-10-18T04:05:28.242Z,102687.81
2022-10-18T04:07:55.587Z,102725.09
2022-10-18T04:10:22.934Z,102712.03
2022-10-18T04:12:49.716Z,102696.41
2022-10-18T04:15:18.020Z,102710.31
2022-10-18T04:17:44.790Z,102715.09
2022-10-18T04:20:12.480Z,102702.34
2022-10-18T04:22:39.284Z,102726.28
2022-10-18T04:25:06.529Z,102724.44
2022-10-18T04:27:33.824Z,102730.00
2022-10-18T04:30:00.963Z,102713.97
2022-10-18T04:32:29.480Z,102726.44
2022-10-18T04:34:56.277Z,102712.47
2022-10-18T04:37:23.030Z,102740.91
2022-10-18T04:39:53.432Z,102734.31
2022-10-18T04:42:20.801Z,102757.00
2022-10-18T04:44:47.730Z,102735.25
2022-10-18T04:47:14.922Z,102723.94
2022-10-18T04:49:43.436Z,102698.94
2022-10-18T04:52:10.648Z,102741.09
2022-10-18T04:54:37.959Z,102752.09
2022-10-18T04:57:04.829Z,102753.69
2022-10-18T04:59:31.547Z,102754.16
2022-10-18T05:01:58.680Z,102742.13
2022-10-18T05:04:25.577Z,102732.63
2022-10-18T05:06:53.686Z,102753.06
2022-10-18T05:09:24.614Z,102752.06
2022-10-18T05:11:51.560Z,102755.53
2022-10-18T05:14:18.920Z,102750.81
2022-10-18T05:16:45.719Z,102755.69
2022-10-18T05:19:12.502Z,102763.31
2022-10-18T05:21:39.286Z,102749.28
2022-10-18T05:24:07.691Z,102750.50
2022-10-18T05:26:34.483Z,102767.44
2022-10-18T05:29:01.630Z,102754.59
2022-10-18T05:31:28.596Z,102770.63
2022-10-18T05:33:56.040Z,102769.56
2022-10-18T05:36:22.883Z,102770.66
2022-10-18T05:38:49.769Z,102766.81
2022-10-18T05:41:18.098Z,102763.31
2022-10-18T05:43:44.982Z,102769.78
2022-10-18T05:46:15.397Z,102781.59
2022-10-18T05:48:43.726Z,102775.19
2022-10-18T05:51:10.477Z,102785.63
2022-10-18T05:53:38.218Z,102783.16
2022-10-18T05:56:06.251Z,102778.09
2022-10-18T05:58:35.151Z,102780.75
2022-10-18T06:01:06.759Z,102782.25
2022-10-18T06:03:34.079Z,102785.53
2022-10-18T06:06:01.421Z,102794.41
2022-10-18T06:08:28.311Z,102787.63
2022-10-18T06:10:55.463Z,102793.81
2022-10-18T06:13:22.486Z,102797.44
2022-10-18T06:15:50.713Z,102805.28
2022-10-18T06:18:17.671Z,102795.28
2022-10-18T06:20:44.396Z,102800.50
2022-10-18T06:23:11.525Z,102794.16
2022-10-18T06:25:41.386Z,102803.22
2022-10-18T06:28:10.253Z,102798.38
2022-10-18T06:30:39.097Z,102797.88
2022-10-18T06:33:08.957Z,102808.56
2022-10-18T06:35:36.043Z,102806.78
2022-10-18T06:38:03.024Z,102813.47
2022-10-18T06:40:33.968Z,102825.16
2022-10-18T06:43:19.699Z,102807.44
2022-10-18T06:45:51.115Z,102806.16
2022-10-18T06:50:53.610Z,102823.25
2022-10-18T06:53:20.607Z,102830.00
2022-10-18T06:55:47.403Z,102827.13
2022-10-18T06:58:18.906Z,102830.47
2022-10-18T07:00:47.109Z,102776.53
2022-10-18T07:03:14.363Z,102797.88
2022-10-18T07:05:46.150Z,102799.16
2022-10-18T07:08:13.177Z,102772.13
2022-10-18T07:10:41.454Z,102851.41
2022-10-18T07:13:30.802Z,102862.44
2022-10-18T07:16:07.553Z,102852.47
2022-10-18T07:18:35.578Z,102831.25
2022-10-18T07:21:10.317Z,102827.28
2022-10-18T07:23:40.671Z,102844.97
2022-10-18T07:26:13.632Z,102859.59
2022-10-18T07:28:45.293Z,102841.34
2022-10-18T07:31:15.953Z,102832.53
2022-10-18T07:33:45.769Z,102832.19
2022-10-18T07:36:14.173Z,102855.97
2022-10-18T07:38:41.583Z,102840.13
2022-10-18T07:41:11.700Z,102855.53
2022-10-18T07:43:42.472Z,102822.97
2022-10-18T07:46:09.480Z,102846.41
2022-10-18T07:48:38.721Z,102868.81
2022-10-18T07:51:06.059Z,102881.19
2022-10-18T07:53:34.734Z,102880.38
2022-10-18T07:56:05.810Z,102886.38
2022-10-18T07:58:35.557Z,102872.06
2022-10-18T08:01:03.617Z,102877.97
2022-10-18T08:03:30.465Z,102859.69
2022-10-18T08:05:57.541Z,102892.38
2022-10-18T08:08:25.731Z,102897.03
2022-10-18T08:10:54.069Z,102888.59
2022-10-18T08:13:21.212Z,102884.31
2022-10-18T08:15:49.824Z,102900.81
2022-10-18T08:18:16.688Z,102907.09
2022-10-18T08:20:43.930Z,102897.84
2022-10-18T08:23:10.830Z,102885.94
2022-10-18T08:25:38.630Z,102916.31
2022-10-18T08:28:07.387Z,102913.28
2022-10-18T08:30:38.182Z,102887.66
2022-10-18T08:33:05.064Z,102871.84
2022-10-18T08:35:32.775Z,102898.28
2022-10-18T08:38:03.919Z,102908.47
2022-10-18T08:40:33.863Z,102907.81
2022-10-18T08:43:19.328Z,102912.88
2022-10-18T08:45:51.620Z,102928.47
2022-10-18T08:48:25.284Z,102926.38
2022-10-18T08:50:56.268Z,102915.47
2022-10-18T08:53:29.019Z,102937.00
2022-10-18T08:56:02.104Z,102928.94
2022-10-18T08:58:33.611Z,102936.72
2022-10-18T09:01:15.646Z,102912.13
2022-10-18T09:04:03.731Z,102926.09
2022-10-18T09:06:35.747Z,102938.53
2022-10-18T09:09:28.299Z,102938.97
2022-10-18T09:12:12.045Z,102935.34
2022-10-18T09:15:26.108Z,102946.94
2022-10-18T09:18:07.580Z,102945.66
2022-10-18T09:20:45.318Z,102950.66
2022-10-18T09:23:20.162Z,102937.03
2022-10-18T09:25:48.535Z,102925.31
2022-10-18T09:28:20.306Z,102923.00
2022-10-18T09:30:59.798Z,102932.38
2022-10-18T09:33:39.387Z,102932.94
2022-10-18T09:36:09.441Z,102946.84
2022-10-18T09:38:43.482Z,102939.47
2022-10-18T09:41:16.905Z,102941.50
2022-10-18T09:43:52.295Z,102953.25
2022-10-18T09:46:23.239Z,102954.63
2022-10-18T09:48:53.175Z,102925.06
2022-10-18T09:51:22.309Z,102949.97
2022-10-18T09:54:12.788Z,102931.75
2022-10-18T09:56:45.185Z,102954.91
2022-10-18T09:59:28.523Z,102960.91
2022-10-18T10:01:56.920Z,102965.09
2022-10-18T10:04:23.875Z,102970.53
2022-10-18T10:06:51.459Z,102963.28
2022-10-18T10:09:24.887Z,102959.22
2022-10-18T10:11:52.949Z,102967.25
2022-10-18T10:14:25.973Z,102976.78
2022-10-18T10:16:54.956Z,102965.09
2022-10-18T10:19:25.240Z,102978.84
2022-10-18T10:21:56.873Z,102971.78
2022-10-18T10:24:35.378Z,102971.47
2022-10-18T10:27:06.150Z,102967.13
2022-10-18T10:29:56.776Z,102972.25
2022-10-18T10:32:30.807Z,102957.66
2022-10-18T10:34:59.386Z,102956.38
2022-10-18T10:37:36.980Z,102986.81
2022-10-18T10:40:20.546Z,102963.59
2022-10-18T10:43:08.741Z,102987.66
2022-10-18T10:45:58.539Z,102997.28
2022-10-18T10:48:29.911Z,102999.16
2022-10-18T10:51:06.225Z,102990.94
2022-10-18T10:53:41.731Z,103008.44
2022-10-18T10:56:21.205Z,103003.91
2022-10-18T10:58:48.618Z,103011.19
2022-10-18T11:01:22.938Z,103000.22
2022-10-18T11:03:51.472Z,103003.47
2022-10-18T11:06:51.039Z,103014.06
2022-10-18T11:09:45.123Z,103017.88
2022-10-18T11:12:23.960Z,103026.38
2022-10-18T11:14:58.103Z,103034.84
2022-10-18T11:17:34.513Z,103006.00
2022-10-18T11:20:24.863Z,103016.22
2022-10-18T11:23:03.375Z,103025.19
2022-10-18T11:26:03.482Z,103022.25
2022-10-18T11:29:09.096Z,103024.91
2022-10-18T11:31:41.706Z,103023.94
2022-10-18T11:34:26.417Z,103027.94
2022-10-18T11:37:22.977Z,103021.25
2022-10-18T11:39:55.069Z,103021.66
2022-10-18T11:42:29.987Z,103016.69
2022-10-18T11:45:07.589Z,103019.44
2022-10-18T11:47:42.227Z,103038.13
2022-10-18T11:50:20.577Z,103029.28
2022-10-18T11:52:55.125Z,103042.03
2022-10-18T11:55:33.301Z,103042.84
2022-10-18T11:58:11.525Z,103010.38
2022-10-18T12:00:49.202Z,103022.63
2022-10-18T12:03:25.186Z,103028.22
2022-10-18T12:05:59.043Z,103016.34
2022-10-18T12:08:29.403Z,103016.16
2022-10-18T12:11:05.075Z,103024.78
2022-10-18T12:13:37.008Z,103017.78
2022-10-18T12:16:07.907Z,103021.13
2022-10-18T12:18:39.453Z,103025.91
2022-10-18T12:21:06.860Z,103023.00
2022-10-18T12:23:42.539Z,103012.31
2022-10-18T12:26:11.240Z,103017.50
2022-10-18T12:28:47.495Z,103024.59
2022-10-18T12:31:22.136Z,103003.38
2022-10-18T12:33:51.577Z,103017.69
2022-10-18T12:36:40.026Z,103018.13
2022-10-18T12:39:11.470Z,103016.56
2022-10-18T12:41:38.681Z,103001.50
2022-10-18T12:44:07.979Z,103020.78
2022-10-18T12:46:48.671Z,103007.88
2022-10-18T12:49:21.906Z,103002.44
2022-10-18T12:51:54.050Z,102994.50
2022-10-18T12:54:27.124Z,103012.34
2022-10-18T12:56:53.888Z,103008.00
2022-10-18T12:59:51.200Z,103011.84
2022-10-18T13:02:26.142Z,102995.75
2022-10-18T13:04:53.177Z,103002.44
2022-10-18T13:07:32.560Z,103011.19
2022-10-18T13:10:39.332Z,103007.19
2022-10-18T13:13:39.142Z,103012.69
2022-10-18T13:16:20.506Z,103015.91
2022-10-18T13:18:54.457Z,102982.06
2022-10-18T13:21:39.690Z,103008.53
2022-10-18T13:24:20.144Z,103013.47
2022-10-18T13:27:18.027Z,103020.16
2022-10-18T13:30:05.692Z,103020.66
2022-10-18T13:32:38.414Z,103007.06
2022-10-18T13:35:46.652Z,103013.03
2022-10-18T13:38:35.880Z,103013.13
2022-10-18T13:41:04.719Z,102999.88
2022-10-18T13:44:09.422Z,103015.72
2022-10-18T13:47:11.493Z,103022.53
2022-10-18T13:49:50.696Z,103014.44
2022-10-18T13:52:25.885Z,103025.69
2022-10-18T13:55:02.907Z,103023.06
2022-10-18T13:57:45.507Z,103014.00
2022-10-18T14:00:29.476Z,103021.00
2022-10-18T14:03:44.503Z,103011.22
2022-10-18T14:06:11.991Z,103018.50
2022-10-18T14:08:44.513Z,103021.94
2022-10-18T14:11:21.673Z,103020.31
2022-10-18T14:13:54.827Z,103010.34
2022-10-18T14:16:34.681Z,103013.72
2022-10-18T14:19:13.738Z,103020.72
2022-10-18T14:21:47.844Z,103028.53
2022-10-18T14:24:21.694Z,103016.34
2022-10-18T14:26:48.550Z,103020.84
2022-10-18T14:29:19.557Z,103011.22
2022-10-18T14:31:53.343Z,103020.84
2022-10-18T14:34:21.151Z,103024.81
2022-10-18T14:36:50.122Z,103015.72
2022-10-18T14:39:22.685Z,103022.38
2022-10-18T14:41:51.419Z,103018.47
2022-10-18T14:44:21.526Z,103035.97
2022-10-18T14:46:50.152Z,103026.63
2022-10-18T14:49:18.520Z,103022.81
2022-10-18T14:51:48.841Z,103003.22
2022-10-18T14:54:18.363Z,103023.63
2022-10-18T14:56:47.698Z,103002.31
2022-10-18T14:59:20.615Z,103012.09
2022-10-18T15:01:57.178Z,103012.28
2022-10-18T15:04:32.934Z,103005.81
2022-10-18T15:07:01.569Z,103016.03
2022-10-18T15:09:29.454Z,103025.03
2022-10-18T15:11:58.298Z,103030.41
2022-10-18T15:14:28.014Z,103025.03
2022-10-18T15:17:02.691Z,103032.09
2022-10-18T15:19:32.727Z,103025.03
2022-10-18T15:25:15.646Z,103024.00
2022-10-18T15:27:47.179Z,103035.44
2022-10-18T15:30:22.862Z,103025.91
2022-10-18T15:32:52.225Z,103032.53
2022-10-18T15:35:26.308Z,103025.97
2022-10-18T15:37:55.831Z,103017.84
2022-10-18T15:40:38.216Z,103030.94
2022-10-18T15:43:34.153Z,103031.34
2022-10-18T15:46:06.488Z,103001.06
2022-10-18T15:48:36.460Z,103022.41
2022-10-18T15:51:07.254Z,103041.19
2022-10-18T15:53:50.483Z,103036.22
2022-10-18T15:56:41.967Z,103038.09
2022-10-18T15:59:23.049Z,103039.41
2022-10-18T16:01:51.797Z,103031.34
2022-10-18T16:04:25.375Z,103018.56
2022-10-18T16:06:54.267Z,103008.28
2022-10-18T16:09:22.241Z,103038.63
2022-10-18T16:11:56.366Z,103047.63
2022-10-18T16:14:26.163Z,103039.03
2022-10-18T16:16:55.931Z,103044.78
2022-10-18T16:19:22.943Z,103055.31
2022-10-18T16:21:50.987Z,103049.09
2022-10-18T16:24:18.527Z,103044.19
2022-10-18T16:26:47.818Z,103034.63
2022-10-18T16:29:16.992Z,103053.56
2022-10-18T16:31:44.078Z,103014.69
2022-10-18T16:34:14.973Z,103007.03
2022-10-18T16:36:42.053Z,103058.69
2022-10-18T16:39:15.472Z,103059.63
2022-10-18T16:41:43.058Z,103047.13
2022-10-18T16:44:10.208Z,103059.56
2022-10-18T16:46:37.441Z,103047.34
2022-10-18T16:49:05.543Z,103059.91
2022-10-18T16:51:35.827Z,103048.56
2022-10-18T16:54:05.507Z,103027.31
2022-10-18T16:56:33.660Z,103042.91
2022-10-18T16:59:03.314Z,103080.06
2022-10-18T17:01:30.267Z,103027.22
2022-10-18T17:03:57.127Z,103074.94
2022-10-18T17:06:26.774Z,103077.75
2022-10-18T17:08:56.125Z,103083.28
2022-10-18T17:11:25.120Z,103094.72
2022-10-18T17:13:52.277Z,103093.84
2022-10-18T17:16:23.147Z,103099.13
2022-10-18T17:18:50.070Z,103093.94
2022-10-18T17:21:16.858Z,103098.53
2022-10-18T17:23:43.571Z,103095.00
2022-10-18T17:26:28.366Z,103094.72
2022-10-18T17:28:57.854Z,103098.00
2022-10-18T17:31:25.017Z,103101.88
2022-10-18T17:33:54.695Z,103101.47
2022-10-18T17:36:21.596Z,103103.47
2022-10-18T17:38:50.695Z,103107.97
2022-10-18T17:41:18.945Z,103099.13
2022-10-18T17:43:46.022Z,103115.88
2022-10-18T17:46:14.310Z,103122.72
2022-10-18T17:48:41.088Z,103120.97
2022-10-18T17:51:08.814Z,103124.25
2022-10-18T17:53:35.741Z,103113.78
2022-10-18T17:56:04.152Z,103139.16
2022-10-18T17:58:32.468Z,103130.13
2022-10-18T18:01:08.972Z,103124.06
2022-10-18T18:03:35.806Z,103132.94
2022-10-18T18:06:12.014Z,103129.53
2022-10-18T18:08:39.074Z,103127.97
2022-10-18T18:11:06.344Z,103134.44
2022-10-18T18:13:34.938Z,103141.78
2022-10-18T18:16:10.933Z,103134.03
2022-10-18T18:18:37.711Z,103130.69
2022-10-18T18:21:04.637Z,103136.03
2022-10-18T18:23:31.430Z,103119.66
2022-10-18T18:25:58.403Z,103120.25
2022-10-18T18:28:25.389Z,103127.41
2022-10-18T18:30:53.613Z,103119.38
2022-10-18T18:33:20.566Z,103117.97
2022-10-18T18:35:55.099Z,103127.75
2022-10-18T18:38:21.884Z,103123.50
2022-10-18T18:40:48.658Z,103123.63
2022-10-18T18:43:23.530Z,103124.63
2022-10-18T18:45:51.960Z,103121.25
2022-10-18T18:48:20.166Z,103129.22
2022-10-18T18:50:51.896Z,103126.97
2022-10-18T18:53:19.493Z,103130.97
2022-10-18T18:55:46.512Z,103130.63
2022-10-18T18:58:13.328Z,103133.81
2022-10-18T19:00:44.383Z,103134.81
2022-10-18T19:03:11.667Z,103134.19
2022-10-18T19:05:39.873Z,103135.34
2022-10-18T19:08:06.910Z,103128.44
2022-10-18T19:10:33.713Z,103124.22
2022-10-18T19:13:00.612Z,103118.03
2022-10-18T19:15:27.516Z,103134.25
2022-10-18T19:17:55.316Z,103145.69
2022-10-18T19:20:22.506Z,103143.06
2022-10-18T19:22:50.736Z,103134.19
2022-10-18T19:25:17.541Z,103137.56
2022-10-18T19:27:44.344Z,103135.69
2022-10-18T19:30:12.046Z,103137.38
2022-10-18T19:32:38.913Z,103141.66
2022-10-18T19:35:06.005Z,103139.56
2022-10-18T19:37:33.200Z,103137.56
2022-10-18T19:40:01.520Z,103150.19
2022-10-18T19:42:31.290Z,103143.09
2022-10-18T19:44:58.543Z,103151.00
2022-10-18T19:47:25.263Z,103143.72
2022-10-18T19:49:53.835Z,103132.09
2022-10-18T19:52:20.926Z,103128.84
2022-10-18T19:54:49.601Z,103140.34
2022-10-18T19:57:17.761Z,103113.22
2022-10-18T19:59:44.660Z,103138.59
2022-10-18T20:02:14.503Z,103136.09
2022-10-18T20:04:41.586Z,103125.66
2022-10-18T20:07:08.417Z,103130.94
2022-10-18T20:09:35.333Z,103141.63
2022-10-18T20:12:02.302Z,103132.78
2022-10-18T20:14:30.443Z,103125.75
2022-10-18T20:16:57.308Z,103130.13
2022-10-18T20:19:24.409Z,103141.63
2022-10-18T20:21:51.259Z,103145.75
2022-10-18T20:24:18.197Z,103143.09
2022-10-18T20:26:45.290Z,103138.63
2022-10-18T20:29:13.637Z,103149.13
2022-10-18T20:31:41.860Z,103131.59
2022-10-18T20:34:11.583Z,103150.13
2022-10-18T20:36:39.066Z,103144.91
2022-10-18T20:39:06.687Z,103146.88
2022-10-18T20:41:35.527Z,103155.75
2022-10-18T20:44:04.186Z,103152.41
2022-10-18T20:46:32.837Z,103144.56
2022-10-18T20:49:01.263Z,103149.25
2022-10-18T20:51:28.252Z,103151.00
2022-10-18T20:53:55.373Z,103156.63
2022-10-18T20:56:25.466Z,103153.97
2022-10-18T20:58:55.032Z,103153.16
2022-10-18T21:01:22.748Z,103156.59
2022-10-18T21:03:51.149Z,103156.53
2022-10-18T21:06:21.251Z,103155.72
2022-10-18T21:08:52.149Z,103155.81
2022-10-18T21:11:18.927Z,103150.72
2022-10-18T21:13:50.201Z,103152.50
2022-10-18T21:16:16.971Z,103151.47
2022-10-18T21:18:43.792Z,103155.03
2022-10-18T21:23:41.758Z,103157.69
2022-10-18T21:26:13.403Z,103155.13
2022-10-18T21:28:40.497Z,103147.94
2022-10-18T21:31:09.209Z,103136.63
2022-10-18T21:33:35.975Z,103130.44
2022-10-18T21:36:02.725Z,103151.41
2022-10-18T21:38:29.671Z,103149.59
2022-10-18T21:40:57.805Z,103147.03
2022-10-18T21:43:24.597Z,103146.19
2022-10-18T21:45:57.477Z,103150.56
2022-10-18T21:48:24.543Z,103144.47
2022-10-18T21:50:51.272Z,103134.13
2022-10-18T21:53:18.003Z,103105.47
2022-10-18T21:55:44.798Z,103140.75
2022-10-18T21:58:12.990Z,103146.09
2022-10-18T22:00:39.902Z,103137.28
2022-10-18T22:03:07.591Z,103137.41
2022-10-18T22:05:34.705Z,103136.25
2022-10-18T22:08:01.475Z,103123.97
2022-10-18T22:10:28.487Z,103132.44
2022-10-18T22:12:55.584Z,103121.78
2022-10-18T22:15:23.801Z,103124.22
2022-10-18T22:17:50.601Z,103123.28
2022-10-18T22:20:17.511Z,103124.88
2022-10-18T22:22:44.350Z,103123.06
2022-10-18T22:25:11.443Z,103119.34
2022-10-18T22:27:38.618Z,103110.59
2022-10-18T22:30:06.404Z,103127.06
2022-10-18T22:32:34.488Z,103131.41
2022-10-18T22:35:01.271Z,103131.34
2022-10-18T22:37:28.112Z,103132.09
2022-10-18T22:39:54.872Z,103123.13
2022-10-18T22:42:21.614Z,103113.31
2022-10-18T22:44:48.397Z,103121.88
2022-10-18T22:47:15.438Z,103129.75
2022-10-18T22:49:43.760Z,103119.16
2022-10-18T22:52:10.591Z,103125.19
2022-10-18T22:54:37.653Z,103120.69
2022-10-18T22:57:04.399Z,103125.13
2022-10-18T22:59:31.144Z,103130.34
2022-10-18T23:01:57.903Z,103124.94
2022-10-18T23:04:24.673Z,103123.09
2022-10-18T23:06:52.875Z,103115.09
2022-10-18T23:09:19.612Z,103115.00
2022-10-18T23:11:48.100Z,103123.84
2022-10-18T23:14:14.920Z,103122.97
2022-10-18T23:16:41.828Z,103123.97
2022-10-18T23:19:14.809Z,103110.81
2022-10-18T23:21:41.547Z,103119.56
2022-10-18T23:24:09.711Z,103126.69
2022-10-18T23:26:36.494Z,103118.84
2022-10-18T23:29:03.483Z,103120.59
2022-10-18T23:31:32.572Z,103121.50
2022-10-18T23:34:01.459Z,103117.13
2022-10-18T23:36:28.489Z,103118.84
2022-10-18T23:38:55.658Z,103125.19
2022-10-18T23:41:24.669Z,103122.63
2022-10-18T23:43:51.820Z,103114.88
2022-10-18T23:46:19.582Z,103117.63
2022-10-18T23:48:47.247Z,103128.03
2022-10-18T23:51:14.514Z,103114.84
2022-10-18T23:53:41.381Z,103116.13
2022-10-18T23:56:10.405Z,103114.25
2022-10-18T23:58:39.861Z,103123.88
